createdAt,value
2022-09-23T00:04:36.701Z,8.84
2022-09-23T00:09:38.259Z,8.75
2022-09-23T00:14:40.115Z,8.74
2022-09-23T00:19:41.874Z,8.69
2022-09-23T00:24:43.567Z,8.61
2022-09-23T00:29:45.326Z,8.61
2022-09-23T00:34:47.922Z,8.63
2022-09-23T00:39:50.406Z,8.54
2022-09-23T00:44:58.175Z,8.50
2022-09-23T00:50:09.965Z,8.49
2022-09-23T00:55:25.375Z,8.48
2022-09-23T01:00:27.272Z,8.44
2022-09-23T01:05:29.133Z,8.34
2022-09-23T01:10:40.197Z,8.45
2022-09-23T01:15:56.420Z,8.41
2022-09-23T01:21:14.257Z,8.37
2022-09-23T01:26:33.815Z,8.31
2022-09-23T01:31:55.608Z,8.34
2022-09-23T01:37:14.101Z,8.27
2022-09-23T01:42:26.369Z,8.27
2022-09-23T01:47:33.274Z,8.22
2022-09-23T01:52:43.333Z,8.26
2022-09-23T01:57:53.654Z,8.22
2022-09-23T02:03:04.902Z,8.15
2022-09-23T02:08:12.912Z,8.06
2022-09-23T02:13:20.598Z,8.10
2022-09-23T02:18:26.184Z,8.08
2022-09-23T02:23:34.147Z,8.05
2022-09-23T02:29:13.329Z,7.97
2022-09-23T02:34:33.739Z,7.99
2022-09-23T02:40:01.915Z,7.92
2022-09-23T02:45:03.722Z,7.86
2022-09-23T02:50:06.348Z,7.89
2022-09-23T02:55:11.905Z,7.85
2022-09-23T03:00:14.226Z,7.95
2022-09-23T03:05:41.399Z,8.02
2022-09-23T03:10:54.642Z,7.97
2022-09-23T03:16:43.628Z,8.04
2022-09-23T03:21:50.256Z,8.10
2022-09-23T03:26:54.187Z,7.95
2022-09-23T03:31:57.425Z,7.97
2022-09-23T03:37:07.508Z,7.99
2022-09-23T03:42:16.978Z,7.87
2022-09-23T03:47:18.893Z,7.92
2022-09-23T03:52:25.625Z,7.87
2022-09-23T03:57:27.467Z,7.82
2022-09-23T04:02:29.099Z,7.78
2022-09-23T04:07:30.791Z,7.78
2022-09-23T04:12:32.313Z,7.83
2022-09-23T04:17:34.007Z,7.85
2022-09-23T04:22:35.671Z,7.86
2022-09-23T04:27:38.069Z,7.97
2022-09-23T04:32:40.342Z,7.91
2022-09-23T04:37:42.344Z,7.80
2022-09-23T04:42:43.856Z,7.82
2022-09-23T04:47:45.477Z,7.78
2022-09-23T04:52:47.073Z,7.75
2022-09-23T04:57:48.672Z,7.70
2022-09-23T05:02:50.901Z,7.69
2022-09-23T05:07:55.627Z,7.72
2022-09-23T05:12:58.741Z,7.75
2022-09-23T05:18:02.351Z,7.80
2022-09-23T05:23:03.888Z,7.73
2022-09-23T05:28:05.444Z,7.64
2022-09-23T05:33:07.127Z,7.63
2022-09-23T05:38:09.574Z,7.69
2022-09-23T05:43:11.115Z,7.70
2022-09-23T05:48:13.016Z,7.68
2022-09-23T05:53:14.536Z,7.69
2022-09-23T05:58:16.032Z,7.75
2022-09-23T06:03:20.565Z,7.70
2022-09-23T06:08:23.569Z,7.71
2022-09-23T06:13:27.435Z,7.73
2022-09-23T06:18:29.041Z,7.78
2022-09-23T06:23:31.062Z,7.85
2022-09-23T06:28:34.744Z,7.83
2022-09-23T06:33:37.447Z,7.90
2022-09-23T06:38:45.924Z,8.01
2022-09-23T06:43:48.139Z,8.15
2022-09-23T06:48:51.068Z,8.24
2022-09-23T06:53:52.874Z,8.43
2022-09-23T06:58:54.755Z,8.68
2022-09-23T07:03:56.319Z,8.98
2022-09-23T07:08:57.849Z,9.18
2022-09-23T07:13:59.403Z,9.30
2022-09-23T07:19:01.033Z,9.63
2022-09-23T07:24:03.802Z,9.79
2022-09-23T07:29:05.411Z,9.87
2022-09-23T07:34:11.836Z,9.93
2022-09-23T07:39:13.961Z,10.11
2022-09-23T07:44:16.228Z,10.23
2022-09-23T07:49:17.864Z,10.33
2022-09-23T07:54:20.488Z,10.53
2022-09-23T07:59:22.362Z,10.54
2022-09-23T08:04:23.913Z,10.77
2022-09-23T08:09:32.778Z,10.81
2022-09-23T08:14:34.572Z,11.07
2022-09-23T08:19:36.161Z,11.28
2022-09-23T08:24:38.346Z,11.70
2022-09-23T08:29:40.176Z,12.11
2022-09-23T08:34:42.655Z,12.52
2022-09-23T08:39:44.577Z,12.58
2022-09-23T08:44:59.251Z,12.93
2022-09-23T08:50:07.236Z,13.36
2022-09-23T08:55:12.813Z,13.60
2022-09-23T09:00:21.217Z,13.68
2022-09-23T09:05:26.852Z,13.90
2022-09-23T09:10:41.667Z,13.80
2022-09-23T09:15:56.206Z,13.91
2022-09-23T09:21:11.612Z,14.21
2022-09-23T09:26:23.835Z,14.18
2022-09-23T09:31:31.299Z,14.36
2022-09-23T09:36:42.477Z,14.66
2022-09-23T09:41:50.591Z,15.24
2022-09-23T09:47:01.365Z,15.35
2022-09-23T09:52:19.361Z,16.01
2022-09-23T09:57:35.035Z,18.05
2022-09-23T10:02:39.810Z,19.43
2022-09-23T10:07:41.344Z,21.61
2022-09-23T10:12:46.678Z,22.65
2022-09-23T10:17:51.224Z,23.33
2022-09-23T10:22:53.260Z,25.22
2022-09-23T10:27:54.824Z,26.10
2022-09-23T10:32:56.908Z,24.66
2022-09-23T10:38:01.446Z,23.96
2022-09-23T10:43:39.407Z,24.39
2022-09-23T10:48:52.486Z,22.83
2022-09-23T10:54:07.353Z,21.17
2022-09-23T10:59:43.447Z,21.69
2022-09-23T11:04:48.328Z,21.21
2022-09-23T11:09:52.864Z,20.89
2022-09-23T11:15:20.476Z,23.52
2022-09-23T11:21:06.730Z,22.46
2022-09-23T11:26:11.015Z,21.43
2022-09-23T11:31:42.519Z,20.85
2022-09-23T11:36:50.676Z,19.96
2022-09-23T11:41:56.675Z,19.66
2022-09-23T11:47:04.531Z,21.90
2022-09-23T11:52:20.557Z,22.04
2022-09-23T11:57:41.731Z,21.91
2022-09-23T12:03:07.072Z,23.38
2022-09-23T12:08:32.264Z,22.62
2022-09-23T12:13:44.924Z,21.17
2022-09-23T12:19:11.115Z,20.87
2022-09-23T12:24:37.671Z,21.10
2022-09-23T12:29:41.042Z,20.23
2022-09-23T12:34:52.029Z,19.97
2022-09-23T12:39:59.004Z,19.71
2022-09-23T12:45:28.342Z,19.52
2022-09-23T12:51:07.673Z,19.40
2022-09-23T12:56:18.977Z,19.27
2022-09-23T13:01:24.493Z,19.29
2022-09-23T13:06:39.111Z,19.12
2022-09-23T13:11:45.378Z,18.91
2022-09-23T13:16:48.006Z,19.01
2022-09-23T13:21:51.247Z,19.08
2022-09-23T13:26:55.405Z,19.18
2022-09-23T13:31:57.931Z,18.62
2022-09-23T13:37:22.167Z,18.72
2022-09-23T13:42:30.319Z,18.70
2022-09-23T13:47:35.946Z,18.72
2022-09-23T13:52:37.599Z,18.90
2022-09-23T13:57:39.191Z,18.84
2022-09-23T14:02:44.286Z,18.74
2022-09-23T14:07:45.950Z,18.67
2022-09-23T14:12:52.624Z,18.60
2022-09-23T14:18:06.527Z,18.41
2022-09-23T14:23:11.606Z,18.55
2022-09-23T14:28:25.221Z,18.51
2022-09-23T14:33:31.981Z,18.58
2022-09-23T14:38:52.292Z,18.47
2022-09-23T14:44:01.748Z,18.43
2022-09-23T14:49:07.522Z,18.59
2022-09-23T14:54:40.488Z,18.36
2022-09-23T14:59:51.086Z,18.35
2022-09-23T15:05:15.659Z,18.34
2022-09-23T15:10:30.361Z,18.10
2022-09-23T15:15:32.441Z,17.83
2022-09-23T15:20:34.936Z,17.70
2022-09-23T15:25:40.835Z,17.58
2022-09-23T15:30:42.790Z,17.52
2022-09-23T15:35:48.857Z,17.61
2022-09-23T15:40:50.664Z,17.62
2022-09-23T15:45:58.605Z,17.52
2022-09-23T15:51:06.883Z,17.37
2022-09-23T15:56:08.680Z,17.39
2022-09-23T16:01:22.180Z,17.27
2022-09-23T16:06:24.438Z,17.25
2022-09-23T16:11:31.851Z,17.02
2022-09-23T16:16:33.611Z,16.92
2022-09-23T16:21:35.574Z,16.90
2022-09-23T16:26:38.601Z,16.85
2022-09-23T16:31:40.783Z,16.64
2022-09-23T16:36:43.827Z,16.60
2022-09-23T16:41:45.744Z,16.47
2022-09-23T16:46:47.463Z,16.50
2022-09-23T16:51:49.117Z,16.35
2022-09-23T16:56:52.678Z,16.26
2022-09-23T17:02:13.352Z,16.06
2022-09-23T17:07:15.253Z,15.96
2022-09-23T17:12:23.232Z,15.62
2022-09-23T17:17:25.833Z,15.39
2022-09-23T17:22:29.686Z,15.30
2022-09-23T17:27:32.508Z,15.26
2022-09-23T17:32:34.122Z,15.24
2022-09-23T17:37:39.177Z,15.08
2022-09-23T17:42:41.668Z,15.03
2022-09-23T17:47:43.494Z,14.89
2022-09-23T17:52:45.225Z,14.76
2022-09-23T17:57:51.025Z,14.69
2022-09-23T18:02:52.744Z,14.58
2022-09-23T18:07:54.428Z,14.49
2022-09-23T18:12:56.081Z,14.44
2022-09-23T18:17:57.660Z,14.36
2022-09-23T18:22:59.453Z,14.36
2022-09-23T18:28:01.276Z,14.29
2022-09-23T18:33:03.444Z,14.12
2022-09-23T18:38:05.042Z,13.96
2022-09-23T18:43:06.716Z,13.88
2022-09-23T18:48:38.927Z,13.78
2022-09-23T18:53:41.892Z,13.69
2022-09-23T18:58:47.937Z,13.61
2022-09-23T19:03:55.105Z,13.56
2022-09-23T19:08:56.946Z,13.47
2022-09-23T19:14:03.359Z,13.38
2022-09-23T19:19:05.615Z,13.32
2022-09-23T19:24:08.217Z,13.25
2022-09-23T19:29:14.898Z,13.13
2022-09-23T19:34:19.577Z,13.01
2022-09-23T19:39:23.758Z,12.90
2022-09-23T19:44:28.622Z,12.79
2022-09-23T19:49:31.085Z,12.68
2022-09-23T19:54:32.816Z,12.56
2022-09-23T19:59:34.570Z,12.48
2022-09-23T20:04:36.249Z,12.36
2022-09-23T20:09:38.079Z,12.27
2022-09-23T20:14:39.824Z,12.18
2022-09-23T20:19:41.673Z,12.11
2022-09-23T20:24:43.288Z,12.07
2022-09-23T20:29:45.056Z,12.01
2022-09-23T20:34:48.705Z,11.94
2022-09-23T20:39:52.458Z,11.89
2022-09-23T20:44:56.737Z,11.81
2022-09-23T20:49:58.523Z,11.78
2022-09-23T20:55:02.386Z,11.74
2022-09-23T21:00:05.071Z,11.70
2022-09-23T21:05:07.221Z,11.70
2022-09-23T21:10:08.984Z,11.68
2022-09-23T21:15:11.900Z,11.61
2022-09-23T21:20:13.590Z,11.46
2022-09-23T21:25:27.343Z,11.43
2022-09-23T21:30:30.378Z,11.39
2022-09-23T21:35:31.944Z,11.35
2022-09-23T21:40:51.943Z,11.33
2022-09-23T21:45:59.397Z,11.25
2022-09-23T21:51:07.266Z,11.17
2022-09-23T21:56:11.176Z,11.13
2022-09-23T22:01:21.694Z,11.05
2022-09-23T22:06:28.172Z,10.98
2022-09-23T22:11:51.556Z,10.90
2022-09-23T22:16:57.266Z,10.77
2022-09-23T22:21:58.995Z,10.70
2022-09-23T22:27:00.794Z,10.64
2022-09-23T22:32:22.781Z,10.60
2022-09-23T22:37:27.758Z,10.51
2022-09-23T22:42:29.963Z,10.42
2022-09-23T22:47:38.611Z,10.38
2022-09-23T22:52:40.403Z,10.35
2022-09-23T22:57:42.082Z,10.29
2022-09-23T23:02:43.677Z,10.21
2022-09-23T23:07:45.336Z,10.26
2022-09-23T23:12:47.460Z,10.20
2022-09-23T23:17:49.446Z,10.25
2022-09-23T23:22:51.594Z,10.30
2022-09-23T23:27:53.813Z,10.37
2022-09-23T23:32:55.605Z,10.38
2022-09-23T23:37:57.784Z,10.40
2022-09-23T23:43:00.208Z,10.42
2022-09-23T23:48:02.358Z,10.43
2022-09-23T23:53:05.404Z,10.43
2022-09-23T23:58:07.193Z,10.39
